Time;durP1;ratioP1;P1;durP2;ratioP2;P2;SDS_P1;SDS_P2;PMS_P1;PMS_P2;Temp;Humidity;BMP_temperature;BMP_pressure;BME280_temperature;BME280_humidity;BME280_pressure;Samples;Min_cycle;Max_cycle;Signal;HPM_P1;HPM_P2
2022/12/06 14:59:34;;;;;;;72.23;39.83;;;;;;;4.07;100.00;100253.98;1500400;85;27740;-87
2022/12/06 15:02:00;;;;;;;58.53;41.53;;;;;;;4.07;100.00;100253.98;1478574;88;21418;-84
2022/12/06 15:04:38;;;;;;;60.27;41.23;;;;;;;4.11;100.00;100241.02;1480112;87;21537;-86
2022/12/06 15:07:05;;;;;;;46.40;34.63;;;;;;;4.18;100.00;100238.81;1478699;87;21702;-87
2022/12/06 15:09:42;;;;;;;47.43;32.07;;;;;;;4.27;100.00;100242.07;1460238;87;21655;-89
2022/12/06 15:15:31;;;;;;;29.83;23.27;;;;;;;4.46;100.00;100238.92;1549722;88;21301;-86
2022/12/06 15:18:24;;;;;;;31.40;22.40;;;;;;;4.57;100.00;100251.24;1500877;87;21346;-86
2022/12/06 15:20:52;;;;;;;26.67;18.97;;;;;;;4.62;100.00;100245.19;1546249;88;21294;-86
2022/12/06 15:23:39;;;;;;;29.47;20.80;;;;;;;4.68;100.00;100242.11;1394987;89;21427;-87
2022/12/06 15:26:10;;;;;;;38.27;19.70;;;;;;;4.73;100.00;100247.85;1392234;87;21338;-88
2022/12/06 15:28:37;;;;;;;27.65;17.70;;;;;;;4.74;100.00;100239.86;1559814;87;21250;-86
2022/12/06 15:31:05;;;;;;;28.17;18.30;;;;;;;4.72;100.00;100240.47;1397381;89;21345;-86
2022/12/06 15:33:31;;;;;;;27.83;18.43;;;;;;;4.77;100.00;100237.48;1389304;89;21316;-87
2022/12/06 15:35:58;;;;;;;25.30;16.93;;;;;;;4.80;100.00;100241.19;1401508;88;22380;-86
2022/12/06 15:38:25;;;;;;;28.73;18.10;;;;;;;4.78;100.00;100232.63;1410192;88;22313;-88
2022/12/06 15:40:55;;;;;;;28.03;17.50;;;;;;;4.83;100.00;100240.95;1472011;88;21436;-85
2022/12/06 15:43:33;;;;;;;25.37;17.27;;;;;;;4.87;100.00;100241.09;1391875;88;22372;-86
2022/12/06 15:46:03;;;;;;;26.13;16.73;;;;;;;4.88;100.00;100245.86;1470827;88;21441;-89
2022/12/06 15:48:35;;;;;;;26.50;18.43;;;;;;;4.91;100.00;100239.08;1473094;88;21500;-86
2022/12/06 15:51:04;;;;;;;27.13;16.80;;;;;;;4.91;100.00;100241.22;1482172;88;21676;-88
2022/12/06 15:53:30;;;;;;;20.40;14.97;;;;;;;4.91;100.00;100239.91;1399241;88;21374;-89
2022/12/06 15:55:56;;;;;;;22.93;18.40;;;;;;;4.88;100.00;100240.14;1387967;89;21331;-88
2022/12/06 15:58:22;;;;;;;24.97;18.93;;;;;;;4.85;100.00;100242.16;1397953;88;22359;-87
2022/12/06 16:00:49;;;;;;;27.17;19.07;;;;;;;4.87;100.00;100233.72;1538228;88;21598;-86
2022/12/06 16:03:15;;;;;;;25.13;18.13;;;;;;;4.89;100.00;100239.20;1545661;88;21289;-86
2022/12/06 16:05:41;;;;;;;24.50;17.10;;;;;;;4.93;100.00;100242.42;1397453;88;21323;-87
2022/12/06 16:08:07;;;;;;;21.20;16.50;;;;;;;4.92;100.00;100240.73;1386238;89;21378;-88
2022/12/06 16:10:33;;;;;;;27.17;19.23;;;;;;;4.90;100.00;100242.18;1407991;88;21294;-86
2022/12/06 16:15:44;;;;;;;21.70;15.70;;;;;;;4.89;100.00;100244.90;1552604;88;22326;-88
2022/12/06 16:18:11;;;;;;;23.27;15.00;;;;;;;4.88;100.00;100251.94;1409141;87;21353;-85
2022/12/06 16:20:39;;;;;;;19.07;15.00;;;;;;;4.86;100.00;100247.30;1404622;87;21339;-87
2022/12/06 16:25:58;;;;;;;23.33;17.03;;;;;;;4.79;100.00;100242.62;1565597;87;21324;-88
2022/12/06 16:28:25;;;;;;;21.53;16.87;;;;;;;4.78;100.00;100247.04;1403795;87;21353;-88
2022/12/06 16:30:51;;;;;;;22.03;16.07;;;;;;;4.79;100.00;100251.32;1397169;89;21434;-88
2022/12/06 16:33:20;;;;;;;24.70;16.90;;;;;;;4.80;100.00;100252.16;1404064;87;21361;-87
2022/12/06 16:35:46;;;;;;;20.23;15.83;;;;;;;4.80;100.00;100246.91;1400903;88;21412;-88
2022/12/06 16:38:17;;;;;;;19.27;15.43;;;;;;;4.82;100.00;100248.95;1459578;88;22526;-84
2022/12/06 16:40:45;;;;;;;22.30;17.17;;;;;;;4.84;100.00;100250.52;1478796;88;21478;-87
2022/12/06 16:43:11;;;;;;;22.90;15.97;;;;;;;4.85;100.00;100246.92;1479450;87;21456;-85
2022/12/06 16:45:41;;;;;;;23.60;15.03;;;;;;;4.85;100.00;100244.30;1483097;88;21448;-90
2022/12/06 16:48:15;;;;;;;21.40;14.93;;;;;;;4.85;100.00;100245.61;1476750;88;22152;-89
2022/12/06 16:50:41;;;;;;;24.83;16.57;;;;;;;4.85;100.00;100245.61;1480152;88;22513;-91
2022/12/06 16:53:10;;;;;;;26.50;17.97;;;;;;;4.85;100.00;100234.30;1480130;87;22395;-87
2022/12/06 16:55:35;;;;;;;25.70;18.93;;;;;;;4.83;100.00;100233.09;1479656;87;22409;-88
2022/12/06 16:58:03;;;;;;;27.37;20.93;;;;;;;4.81;100.00;100228.45;1480555;87;21544;-88
2022/12/06 17:00:29;;;;;;;23.17;16.17;;;;;;;4.80;100.00;100220.69;1472148;87;22461;-88
2022/12/06 17:02:55;;;;;;;21.83;17.13;;;;;;;4.78;100.00;100226.06;1474530;87;21583;-89
2022/12/06 17:05:24;;;;;;;21.23;16.27;;;;;;;4.77;100.00;100228.78;1476967;88;21368;-91
2022/12/06 17:07:51;;;;;;;18.73;14.00;;;;;;;4.79;100.00;100235.59;1475006;87;21404;-90
2022/12/06 17:10:19;;;;;;;18.13;13.00;;;;;;;4.81;100.00;100233.70;1475896;88;21457;-88
2022/12/06 17:12:51;;;;;;;17.23;13.67;;;;;;;4.81;100.00;100237.63;1405440;88;21576;-86
2022/12/06 17:15:20;;;;;;;18.93;14.57;;;;;;;4.83;100.00;100239.64;1476532;88;21538;-86
2022/12/06 17:17:47;;;;;;;18.80;13.50;;;;;;;4.85;100.00;100238.23;1470937;87;21573;-87
2022/12/06 17:20:18;;;;;;;17.37;13.63;;;;;;;4.85;100.00;100241.69;1390907;89;21376;-89
2022/12/06 17:22:45;;;;;;;23.18;14.18;;;;;;;4.83;100.00;100243.58;1396950;88;21354;-90
2022/12/06 17:25:12;;;;;;;27.60;18.03;;;;;;;4.83;100.00;100242.74;1398590;88;21346;-88
2022/12/06 17:27:39;;;;;;;35.90;17.97;;;;;;;4.86;100.00;100246.45;1397519;87;21405;-88
2022/12/06 17:30:10;;;;;;;40.50;18.53;;;;;;;4.87;100.00;100245.03;1439681;87;21581;-89
2022/12/06 17:32:38;;;;;;;34.57;16.43;;;;;;;4.88;100.00;100252.42;1478247;87;21464;-91
2022/12/06 17:35:06;;;;;;;70.10;27.90;;;;;;;4.87;100.00;100243.72;1474836;87;22536;-90
2022/12/06 17:37:32;;;;;;;41.27;18.83;;;;;;;4.88;100.00;100249.31;1473300;87;21493;-88
2022/12/06 17:39:58;;;;;;;25.57;15.97;;;;;;;4.89;100.00;100248.84;1475041;87;21367;-91
2022/12/06 17:45:08;;;;;;;24.93;15.07;;;;;;;4.83;100.00;100247.51;1466991;88;21604;-90
2022/12/06 17:47:34;;;;;;;23.63;18.17;;;;;;;4.77;100.00;100248.45;1478771;87;21647;-88
2022/12/06 17:50:01;;;;;;;21.33;15.13;;;;;;;4.78;100.00;100248.35;1474081;87;21500;-87
2022/12/06 17:52:27;;;;;;;23.03;16.10;;;;;;;4.76;100.00;100246.31;1473400;88;21605;-88
2022/12/06 17:54:53;;;;;;;26.23;17.10;;;;;;;4.77;100.00;100253.22;1473600;88;21530;-90
2022/12/06 17:57:19;;;;;;;25.57;18.57;;;;;;;4.81;100.00;100250.74;1474197;88;21471;-88
2022/12/06 17:59:47;;;;;;;23.33;16.30;;;;;;;4.81;100.00;100253.37;1477849;87;21499;-91
2022/12/06 18:02:22;;;;;;;20.33;15.27;;;;;;;4.81;100.00;100253.84;1482237;87;21537;-90
2022/12/06 18:04:47;;;;;;;19.23;13.47;;;;;;;4.79;100.00;100257.87;1486298;87;21729;-91
2022/12/06 18:07:15;;;;;;;19.27;13.70;;;;;;;4.77;100.00;100255.84;1487381;88;21432;-87
2022/12/06 18:09:41;;;;;;;16.73;11.63;;;;;;;4.77;100.00;100255.84;1411337;87;21480;-86
2022/12/06 18:12:10;;;;;;;19.23;14.33;;;;;;;4.79;100.00;100252.64;1569836;87;22160;-88
2022/12/06 18:14:36;;;;;;;15.43;11.63;;;;;;;4.79;100.00;100252.64;1406062;88;21434;-89
2022/12/06 18:17:02;;;;;;;15.87;10.93;;;;;;;4.77;100.00;100252.39;1407610;87;21300;-88
2022/12/06 18:19:28;;;;;;;15.03;11.07;;;;;;;4.83;100.00;100254.55;1407161;87;22239;-89
2022/12/06 18:21:54;;;;;;;16.33;12.20;;;;;;;4.82;100.00;100245.02;1407644;87;21489;-90
2022/12/06 18:24:20;;;;;;;20.60;11.67;;;;;;;4.79;100.00;100240.84;1402388;88;21434;-86
2022/12/06 18:26:47;;;;;;;16.40;11.67;;;;;;;4.80;100.00;100234.63;1407168;88;21366;-91
2022/12/06 18:29:17;;;;;;;15.80;12.20;;;;;;;4.74;100.00;100235.09;1551519;88;21390;-89
2022/12/06 18:31:43;;;;;;;15.85;11.85;;;;;;;4.75;100.00;100234.16;1556604;88;22287;-89
2022/12/06 18:34:10;;;;;;;19.63;12.80;;;;;;;4.73;100.00;100234.74;1407226;87;21323;-90
2022/12/06 18:36:37;;;;;;;16.17;11.50;;;;;;;4.72;100.00;100232.60;1406223;87;21331;-88
2022/12/06 18:39:06;;;;;;;18.10;11.83;;;;;;;4.73;100.00;100232.12;1412900;87;22292;-88
2022/12/06 18:41:32;;;;;;;19.07;12.07;;;;;;;4.74;100.00;100232.47;1404233;88;21323;-92
2022/12/06 18:44:02;;;;;;;33.63;19.77;;;;;;;4.70;100.00;100233.66;1407367;87;21344;-89
2022/12/06 18:46:29;;;;;;;93.10;48.20;;;;;;;4.67;100.00;100233.89;1406019;88;21338;-92
2022/12/06 18:48:58;;;;;;;86.60;43.07;;;;;;;4.65;100.00;100232.69;1406553;87;22271;-90
2022/12/06 18:51:29;;;;;;;68.13;35.73;;;;;;;4.61;100.00;100222.56;1393575;88;21374;-88
2022/12/06 18:53:59;;;;;;;100.90;50.30;;;;;;;4.58;100.00;100218.86;1570063;88;22226;-91
2022/12/06 18:56:28;;;;;;;83.58;38.98;;;;;;;4.57;100.00;100218.48;1421978;88;21346;-91
2022/12/06 18:58:58;;;;;;;41.27;23.67;;;;;;;4.56;100.00;100211.58;1397875;88;21396;-91
2022/12/06 19:01:31;;;;;;;62.83;35.00;;;;;;;4.55;100.00;100219.09;1559450;87;21435;-91
2022/12/06 19:03:59;;;;;;;27.20;17.73;;;;;;;4.53;100.00;100217.39;1559209;88;21426;-91
2022/12/06 19:06:29;;;;;;;28.50;16.87;;;;;;;4.48;100.00;100214.28;1401840;87;21382;-87
2022/12/06 19:08:58;;;;;;;30.87;17.67;;;;;;;4.44;100.00;100209.39;1559141;87;21427;-91
2022/12/06 19:11:24;;;;;;;32.57;18.67;;;;;;;4.41;100.00;100209.63;1395298;87;21412;-91
2022/12/06 19:13:53;;;;;;;19.47;12.10;;;;;;;4.39;100.00;100211.03;1399102;87;22257;-88
2022/12/06 19:16:25;;;;;;;16.33;10.90;;;;;;;4.37;100.00;100211.61;1395244;87;21617;-92
2022/12/06 19:18:54;;;;;;;13.97;9.23;;;;;;;4.38;100.00;100211.98;1452200;87;21390;-90
2022/12/06 19:21:21;;;;;;;16.57;11.20;;;;;;;4.40;100.00;100207.93;1400963;87;21391;-91
2022/12/06 19:23:50;;;;;;;14.97;9.60;;;;;;;4.38;100.00;100204.61;1398668;87;21370;-90
2022/12/06 19:26:15;;;;;;;13.87;9.50;;;;;;;4.37;100.00;100212.09;1556818;88;21309;-89
2022/12/06 19:28:41;;;;;;;14.30;9.33;;;;;;;4.33;100.00;100209.34;1398904;87;21346;-87
2022/12/06 19:31:11;;;;;;;12.70;8.10;;;;;;;4.29;100.00;100203.50;1398889;87;21428;-91
2022/12/06 19:33:42;;;;;;;14.13;7.83;;;;;;;4.26;100.00;100201.94;1395027;88;21316;-90
2022/12/06 19:36:12;;;;;;;12.18;7.55;;;;;;;4.19;100.00;100203.80;1553403;87;22278;-90
2022/12/06 19:38:39;;;;;;;8.45;5.87;;;;;;;4.15;100.00;100199.27;1468401;88;21353;-89
2022/12/06 19:41:07;;;;;;;7.10;5.87;;;;;;;4.11;100.00;100199.59;1399060;88;21361;-87
2022/12/06 19:46:24;;;;;;;10.10;7.97;;;;;;;3.97;100.00;100190.97;1559163;88;21317;-87
2022/12/06 19:48:53;;;;;;;11.77;7.33;;;;;;;3.91;100.00;100194.00;1394236;87;21391;-88
2022/12/06 19:51:19;;;;;;;10.60;7.03;;;;;;;3.82;100.00;100206.45;1557800;88;21346;-87
2022/12/06 19:53:45;;;;;;;12.37;7.23;;;;;;;3.77;100.00;100203.33;1398749;88;21353;-89
2022/12/06 19:56:15;;;;;;;7.53;4.80;;;;;;;3.73;100.00;100213.66;1399151;87;22285;-87
2022/12/06 19:58:42;;;;;;;6.13;4.23;;;;;;;3.69;100.00;100206.98;1395307;87;21383;-88
2022/12/06 20:01:12;;;;;;;8.10;4.77;;;;;;;3.64;100.00;100206.47;1403450;87;21464;-88
2022/12/06 20:03:39;;;;;;;11.65;7.05;;;;;;;3.59;100.00;100212.02;1457061;87;21783;-88
2022/12/06 20:06:10;;;;;;;17.53;11.53;;;;;;;3.53;100.00;100205.43;1476396;88;21592;-88
2022/12/06 20:08:36;;;;;;;11.83;6.15;;;;;;;3.46;100.00;100204.20;1474129;87;21478;-87
2022/12/06 20:11:05;;;;;;;11.67;6.80;;;;;;;3.43;100.00;100195.27;1472056;88;22389;-88
2022/12/06 20:13:32;;;;;;;10.63;6.30;;;;;;;3.40;100.00;100199.41;1477670;87;22477;-86
2022/12/06 20:16:03;;;;;;;12.13;7.70;;;;;;;3.34;100.00;100190.20;1476491;88;21494;-88
2022/12/06 20:18:30;;;;;;;13.72;6.55;;;;;;;3.30;100.00;100195.74;1474103;88;22455;-88
2022/12/06 20:20:57;;;;;;;11.57;7.63;;;;;;;3.24;100.00;100196.17;1477589;88;21500;-86
2022/12/06 20:23:24;;;;;;;12.13;7.23;;;;;;;3.20;100.00;100198.65;1472029;88;21537;-87
2022/12/06 20:25:52;;;;;;;9.77;7.23;;;;;;;3.15;100.00;100199.78;1467681;88;21486;-86
2022/12/06 20:28:18;;;;;;;11.77;7.80;;;;;;;3.14;100.00;100198.59;1463201;88;21553;-87
2022/12/06 20:30:44;;;;;;;18.60;11.47;;;;;;;3.11;100.00;100207.48;1474470;87;21441;-88
2022/12/06 20:33:10;;;;;;;12.57;8.27;;;;;;;3.07;100.00;100207.79;1476239;87;21470;-90
2022/12/06 20:35:36;;;;;;;12.87;8.57;;;;;;;3.04;100.00;100210.62;1474355;88;21463;-89
2022/12/06 20:38:02;;;;;;;13.00;7.30;;;;;;;2.97;100.00;100206.28;1476840;88;21485;-88
2022/12/06 20:40:29;;;;;;;12.07;7.30;;;;;;;2.93;100.00;100213.95;1475047;87;21479;-87
2022/12/06 20:42:55;;;;;;;15.93;8.17;;;;;;;2.89;100.00;100213.80;1474486;87;21390;-88
2022/12/06 20:45:21;;;;;;;9.90;6.70;;;;;;;2.84;100.00;100218.02;1471983;88;22328;-86
2022/12/06 20:47:49;;;;;;;10.60;6.97;;;;;;;2.81;100.00;100216.09;1474944;87;21456;-88
2022/12/06 20:50:15;;;;;;;13.33;7.83;;;;;;;2.82;100.00;100212.08;1474099;87;21434;-86
2022/12/06 20:52:43;;;;;;;11.50;6.90;;;;;;;2.77;100.00;100211.55;1476093;88;21404;-88
2022/12/06 20:55:10;;;;;;;12.30;7.27;;;;;;;2.76;100.00;100203.80;1474073;88;21427;-87
2022/12/06 20:57:37;;;;;;;8.73;5.77;;;;;;;2.71;100.00;100208.88;1403295;87;21368;-86
2022/12/06 21:00:06;;;;;;;11.80;7.03;;;;;;;2.67;100.00;100208.70;1524223;87;21412;-88
2022/12/06 21:02:32;;;;;;;7.97;5.23;;;;;;;2.67;100.00;100207.39;1559339;87;21361;-89
2022/12/06 21:04:58;;;;;;;10.33;6.43;;;;;;;2.67;100.00;100213.92;1414104;88;21471;-88
2022/12/06 21:07:25;;;;;;;9.97;7.00;;;;;;;2.70;100.00;100215.05;1469246;88;22549;-87
2022/12/06 21:09:51;;;;;;;8.80;6.30;;;;;;;2.68;100.00;100216.92;1476018;87;21434;-87
2022/12/06 21:12:19;;;;;;;10.20;7.03;;;;;;;2.66;100.00;100220.09;1474389;87;21463;-86
2022/12/06 21:14:45;;;;;;;11.83;7.73;;;;;;;2.63;100.00;100222.09;1472539;88;22372;-89
2022/12/06 21:17:11;;;;;;;10.47;6.33;;;;;;;2.60;100.00;100219.20;1471806;88;21963;-88
2022/12/06 21:19:38;;;;;;;10.40;6.20;;;;;;;2.55;100.00;100209.52;1465145;88;21485;-86
2022/12/06 21:22:06;;;;;;;11.30;7.13;;;;;;;2.55;100.00;100209.52;1475107;87;22492;-87
2022/12/06 21:24:32;;;;;;;9.93;5.80;;;;;;;2.56;100.00;100213.83;1469504;87;22305;-85
2022/12/06 21:26:58;;;;;;;9.10;5.93;;;;;;;2.57;100.00;100214.19;1472624;88;21933;-88
2022/12/06 21:29:24;;;;;;;11.07;6.87;;;;;;;2.53;100.00;100215.30;1474612;87;21442;-87
2022/12/06 21:31:50;;;;;;;7.50;5.83;;;;;;;2.53;100.00;100217.92;1474022;87;21427;-86
2022/12/06 21:34:17;;;;;;;9.40;5.67;;;;;;;2.50;100.00;100223.34;1473151;87;21484;-84
2022/12/06 21:36:44;;;;;;;8.67;5.00;;;;;;;2.46;100.00;100220.58;1479426;88;22336;-87
2022/12/06 21:39:13;;;;;;;7.47;5.43;;;;;;;2.46;100.00;100220.58;1472589;88;22388;-88
2022/12/06 21:41:40;;;;;;;13.10;5.83;;;;;;;2.46;100.00;100219.27;1397435;87;21420;-86
2022/12/06 21:44:06;;;;;;;8.80;6.23;;;;;;;2.43;100.00;100216.87;1398455;88;21391;-86
2022/12/06 21:46:32;;;;;;;10.30;6.10;;;;;;;2.25;100.00;100211.91;1398726;88;21316;-84
2022/12/06 21:48:59;;;;;;;11.63;6.83;;;;;;;2.25;100.00;100211.91;1399051;88;21346;-84
2022/12/06 21:51:30;;;;;;;13.07;7.63;;;;;;;2.22;100.00;100222.55;1403550;88;22090;-91
2022/12/06 21:53:56;;;;;;;15.43;7.67;;;;;;;2.18;100.00;100221.53;1559333;87;21494;-89
2022/12/06 21:56:27;;;;;;;16.77;8.83;;;;;;;2.13;100.00;100221.84;1398148;88;21360;-87
2022/12/06 21:58:53;;;;;;;21.30;11.45;;;;;;;2.13;100.00;100221.84;1394365;87;21390;-84
2022/12/06 22:01:24;;;;;;;11.83;8.30;;;;;;;2.10;100.00;100223.36;1409639;87;21367;-87
2022/12/06 22:03:52;;;;;;;11.80;6.92;;;;;;;2.05;100.00;100229.33;1403015;88;22056;-86
2022/12/06 22:06:19;;;;;;;13.17;7.13;;;;;;;2.01;100.00;100235.66;1404770;88;21382;-82
2022/12/06 22:08:47;;;;;;;11.53;6.10;;;;;;;1.97;100.00;100235.50;1412600;88;22900;-85
2022/12/06 22:11:17;;;;;;;13.87;7.27;;;;;;;1.94;100.00;100231.78;1406011;87;22127;-85
2022/12/06 22:13:44;;;;;;;13.38;6.90;;;;;;;1.92;100.00;100229.25;1402632;88;21294;-83
2022/12/06 22:16:11;;;;;;;12.87;8.27;;;;;;;1.92;100.00;100231.03;1406864;88;22270;-91
2022/12/06 22:18:40;;;;;;;13.60;7.07;;;;;;;1.87;100.00;100223.52;1406533;88;22101;-76
2022/12/06 22:21:11;;;;;;;13.63;7.47;;;;;;;1.85;100.00;100232.38;1393964;88;22227;-76
2022/12/06 22:23:37;;;;;;;;;;;;;;;1.82;100.00;100232.56;1572121;88;23115;-76
2022/12/06 22:26:08;;;;;;;12.60;8.63;;;;;;;1.75;100.00;100232.09;1413374;88;20230;-76
2022/12/06 22:28:35;;;;;;;13.20;8.23;;;;;;;1.70;100.00;100228.48;1403774;87;21300;-75
2022/12/06 22:31:15;;;;;;;11.87;7.97;;;;;;;1.67;100.00;100229.12;1497462;88;22256;-76
2022/12/06 22:33:42;;;;;;;12.45;8.13;;;;;;;1.64;100.00;100228.00;1489886;87;23212;-76
2022/12/06 22:36:10;;;;;;;13.23;8.10;;;;;;;1.61;100.00;100225.12;1483890;87;21574;-76
2022/12/06 22:38:36;;;;;;;10.07;6.97;;;;;;;1.60;100.00;100226.06;1484756;87;22587;-76
2022/12/06 22:41:03;;;;;;;11.93;8.37;;;;;;;1.56;100.00;100225.42;1490953;88;22141;-77
2022/12/06 22:43:29;;;;;;;13.30;8.13;;;;;;;1.53;100.00;100229.52;1480667;88;22225;-76
2022/12/06 22:45:58;;;;;;;9.67;7.00;;;;;;;1.41;100.00;100224.20;1478573;88;22094;-76
2022/12/06 22:48:24;;;;;;;10.63;8.00;;;;;;;1.41;100.00;100224.20;1393185;89;22149;-76
2022/12/06 22:50:50;;;;;;;12.53;7.10;;;;;;;1.43;100.00;100218.44;1407561;88;22885;-77
2022/12/06 22:53:16;;;;;;;12.40;7.43;;;;;;;1.41;100.00;100225.52;1407675;87;22113;-76
2022/12/06 22:55:42;;;;;;;12.33;8.57;;;;;;;1.40;100.00;100214.25;1407628;87;21367;-76
2022/12/06 22:58:08;;;;;;;11.13;7.47;;;;;;;1.39;100.00;100218.27;1407555;87;21411;-76
2022/12/06 23:00:34;;;;;;;13.53;8.73;;;;;;;1.37;100.00;100225.34;1413492;87;21419;-76
2022/12/06 23:03:00;;;;;;;10.00;6.70;;;;;;;1.34;100.00;100237.63;1507144;87;21536;-76
2022/12/06 23:05:26;;;;;;;12.20;7.47;;;;;;;1.34;100.00;100237.63;1479017;87;22111;-76
2022/12/06 23:07:52;;;;;;;12.80;8.43;;;;;;;1.33;100.00;100239.04;1483648;87;22803;-76
2022/12/06 23:10:18;;;;;;;13.17;8.47;;;;;;;1.34;100.00;100232.41;1482993;88;22123;-76
2022/12/06 23:12:44;;;;;;;12.37;8.17;;;;;;;1.32;100.00;100226.91;1483818;88;22182;-76
2022/12/06 23:15:10;;;;;;;12.10;8.30;;;;;;;1.33;100.00;100233.35;1483077;87;22144;-76
2022/12/06 23:17:38;;;;;;;13.87;8.03;;;;;;;1.33;100.00;100233.35;1483469;88;22358;-75
2022/12/06 23:24:12;;;;;;;18.77;11.03;;;;;;;1.29;100.00;100234.92;1476508;88;22408;-75
2022/12/06 23:26:42;;;;;;;18.80;11.40;;;;;;;1.20;100.00;100223.28;1569773;87;21896;-76
2022/12/06 23:29:10;;;;;;;19.02;10.95;;;;;;;1.20;100.00;100223.28;1569925;87;22002;-76
2022/12/06 23:31:40;;;;;;;16.50;9.80;;;;;;;1.17;100.00;100219.56;1405976;88;21412;-75
2022/12/06 23:34:24;;;;;;;15.10;9.00;;;;;;;1.17;100.00;100219.56;1402840;87;22132;-76
2022/12/06 23:36:50;;;;;;;14.80;9.73;;;;;;;1.22;100.00;100227.95;1402625;88;21427;-77
2022/12/06 23:39:17;;;;;;;13.47;9.37;;;;;;;1.20;100.00;100227.66;1407421;88;22960;-75
2022/12/06 23:41:43;;;;;;;14.53;9.57;;;;;;;1.20;100.00;100235.02;1395853;88;22072;-76
2022/12/06 23:44:11;;;;;;;12.67;8.93;;;;;;;1.19;100.00;100229.44;1406914;87;21991;-78
2022/12/06 23:46:39;;;;;;;13.00;9.17;;;;;;;1.15;100.00;100234.45;1404875;88;22050;-79
2022/12/06 23:49:06;;;;;;;13.90;9.10;;;;;;;1.11;100.00;100222.54;1404618;87;22043;-78
2022/12/06 23:51:37;;;;;;;13.70;9.03;;;;;;;1.05;100.00;100221.61;1406121;87;22923;-78
2022/12/06 23:54:06;;;;;;;12.73;8.55;;;;;;;1.07;100.00;100223.67;1405700;88;21856;-79
2022/12/06 23:56:37;;;;;;;13.70;9.73;;;;;;;1.05;100.00;100225.05;1403816;87;21508;-79
2022/12/06 23:59:06;;;;;;;17.12;10.18;;;;;;;1.04;100.00;100219.95;1463096;88;22020;-80
